createdAt,value
2018-08-02T00:02:00.025Z,63.20
2018-08-02T00:04:30.835Z,63.40
2018-08-02T00:07:00.858Z,63.00
2018-08-02T00:09:31.222Z,63.50
2018-08-02T00:12:00.830Z,63.80
2018-08-02T00:14:32.041Z,64.20
2018-08-02T00:17:01.992Z,64.10
2018-08-02T00:19:31.814Z,64.10
2018-08-02T00:22:01.829Z,63.60
2018-08-02T00:24:31.545Z,63.50
2018-08-02T00:27:01.194Z,64.10
2018-08-02T00:29:31.770Z,63.30
2018-08-02T00:32:01.652Z,63.30
2018-08-02T00:34:31.321Z,63.50
2018-08-02T00:37:01.320Z,63.50
2018-08-02T00:39:31.056Z,63.20
2018-08-02T00:42:00.885Z,63.00
2018-08-02T00:44:31.273Z,62.90
2018-08-02T00:47:01.198Z,62.50
2018-08-02T00:49:30.896Z,63.10
2018-08-02T00:52:00.895Z,63.50
2018-08-02T00:54:30.900Z,63.70
2018-08-02T00:57:00.758Z,64.00
2018-08-02T00:59:31.684Z,63.80
2018-08-02T01:02:01.995Z,63.80
2018-08-02T01:04:32.036Z,64.70
2018-08-02T01:07:01.869Z,64.40
2018-08-02T01:09:31.583Z,64.10
2018-08-02T01:12:01.574Z,64.20
2018-08-02T01:14:31.386Z,63.90
2018-08-02T01:17:01.130Z,64.40
2018-08-02T01:19:31.258Z,64.20
2018-08-02T01:22:00.986Z,64.30
2018-08-02T01:24:30.793Z,64.20
2018-08-02T01:27:00.825Z,64.10
2018-08-02T01:29:30.469Z,63.50
2018-08-02T01:32:00.385Z,63.60
2018-08-02T01:34:30.507Z,63.70
2018-08-02T01:37:00.483Z,63.70
2018-08-02T01:39:30.079Z,63.80
2018-08-02T01:42:00.086Z,63.80
2018-08-02T01:44:40.245Z,63.70
2018-08-02T01:47:10.210Z,63.70
2018-08-02T01:49:39.843Z,63.50
2018-08-02T01:52:09.591Z,63.60
2018-08-02T01:54:39.773Z,63.70
2018-08-02T01:57:09.390Z,63.70
2018-08-02T01:59:39.244Z,64.00
2018-08-02T02:02:09.460Z,63.90
2018-08-02T02:04:39.090Z,64.10
2018-08-02T02:07:08.875Z,63.90
2018-08-02T02:09:38.704Z,65.40
2018-08-02T02:12:08.427Z,64.10
2018-08-02T02:14:40.171Z,64.00
2018-08-02T02:17:09.792Z,63.90
2018-08-02T02:19:39.602Z,63.90
2018-08-02T02:22:09.574Z,64.10
2018-08-02T02:24:39.241Z,64.70
2018-08-02T02:27:08.943Z,64.30
2018-08-02T02:29:39.062Z,64.70
2018-08-02T02:32:08.843Z,65.10
2018-08-02T02:34:38.492Z,65.20
2018-08-02T02:37:08.454Z,64.70
2018-08-02T02:39:38.183Z,64.60
2018-08-02T02:42:08.022Z,64.70
2018-08-02T02:44:37.737Z,64.60
2018-08-02T02:47:07.371Z,64.60
2018-08-02T02:49:37.426Z,64.70
2018-08-02T02:54:36.091Z,64.80
2018-08-02T02:57:06.062Z,65.30
2018-08-02T02:59:35.672Z,64.40
2018-08-02T03:02:05.360Z,63.90
2018-08-02T03:04:35.068Z,64.20
2018-08-02T03:07:04.700Z,64.30
2018-08-02T03:09:34.778Z,65.10
2018-08-02T03:12:04.544Z,64.40
2018-08-02T03:14:34.279Z,64.40
2018-08-02T03:17:04.575Z,64.60
2018-08-02T03:19:34.292Z,64.60
2018-08-02T03:22:04.089Z,64.20
2018-08-02T03:24:33.777Z,64.70
2018-08-02T03:27:03.561Z,64.80
2018-08-02T03:29:33.525Z,64.80
2018-08-02T03:32:03.448Z,64.80
2018-08-02T03:34:33.273Z,64.80
2018-08-02T03:37:03.433Z,64.50
2018-08-02T03:39:33.499Z,64.70
2018-08-02T03:42:03.141Z,64.60
2018-08-02T03:44:33.306Z,64.50
2018-08-02T03:47:02.924Z,64.50
2018-08-02T03:49:32.594Z,64.70
2018-08-02T03:52:02.555Z,65.10
2018-08-02T03:54:32.239Z,65.30
2018-08-02T03:57:02.089Z,65.60
2018-08-02T03:59:32.226Z,65.60
2018-08-02T04:02:01.900Z,65.90
2018-08-02T04:04:31.531Z,66.00
2018-08-02T04:07:01.779Z,65.50
2018-08-02T04:09:31.476Z,65.30
2018-08-02T04:12:01.268Z,64.90
2018-08-02T04:14:30.903Z,64.40
2018-08-02T04:17:01.832Z,64.10
2018-08-02T04:19:31.516Z,64.50
2018-08-02T04:22:01.173Z,64.60
2018-08-02T04:24:30.918Z,64.70
2018-08-02T04:27:00.569Z,63.60
2018-08-02T04:29:31.118Z,64.20
2018-08-02T04:32:01.837Z,62.90
2018-08-02T04:34:31.515Z,63.90
2018-08-02T04:37:01.642Z,63.90
2018-08-02T04:39:31.354Z,63.50
2018-08-02T04:42:01.482Z,63.30
2018-08-02T04:47:01.186Z,63.50
2018-08-02T04:49:31.245Z,63.50
2018-08-02T04:52:00.968Z,63.60
2018-08-02T04:57:15.829Z,62.70
2018-08-02T04:59:46.555Z,63.40
2018-08-02T05:02:16.574Z,63.50
2018-08-02T05:04:46.247Z,62.50
2018-08-02T05:07:16.299Z,62.60
2018-08-02T05:09:46.450Z,62.10
2018-08-02T05:12:16.298Z,62.10
2018-08-02T05:14:46.375Z,62.10
2018-08-02T05:17:16.397Z,63.20
2018-08-02T05:19:46.043Z,62.80
2018-08-02T05:22:16.556Z,61.90
2018-08-02T05:24:47.202Z,57.70
2018-08-02T05:27:18.888Z,53.90
2018-08-02T05:29:49.963Z,51.10
2018-08-02T05:32:21.215Z,47.60
2018-08-02T05:34:53.563Z,45.50
2018-08-02T05:39:53.903Z,43.40
2018-08-02T05:42:24.264Z,43.00
2018-08-02T05:44:55.018Z,42.90
2018-08-02T05:47:25.012Z,42.80
2018-08-02T05:49:55.299Z,41.70
2018-08-02T05:52:25.666Z,41.30
2018-08-02T05:57:29.448Z,41.50
2018-08-02T05:59:59.733Z,40.30
2018-08-02T06:02:30.531Z,39.70
2018-08-02T06:05:01.503Z,40.20
2018-08-02T06:07:31.685Z,39.40
2018-08-02T06:10:09.198Z,38.80
2018-08-02T06:12:43.659Z,38.50
2018-08-02T06:15:16.840Z,38.80
2018-08-02T06:17:46.930Z,39.50
2018-08-02T06:20:17.863Z,41.30
2018-08-02T06:25:22.302Z,41.50
2018-08-02T06:27:53.317Z,41.90
2018-08-02T06:30:26.479Z,43.70
2018-08-02T06:32:56.995Z,45.60
2018-08-02T06:35:27.498Z,47.70
2018-08-02T06:37:57.265Z,49.60
2018-08-02T06:45:28.004Z,51.40
2018-08-02T06:47:56.050Z,51.80
2018-08-02T06:50:27.889Z,52.30
2018-08-02T06:55:31.091Z,53.40
2018-08-02T06:58:03.429Z,53.10
2018-08-02T07:00:33.214Z,53.10
2018-08-02T07:03:03.787Z,52.90
2018-08-02T07:05:35.715Z,52.80
2018-08-02T07:08:05.785Z,52.80
2018-08-02T07:10:36.044Z,52.30
2018-08-02T07:13:07.191Z,51.40
2018-08-02T07:15:37.182Z,51.90
2018-08-02T07:18:07.517Z,52.30
2018-08-02T07:23:06.606Z,54.20
2018-08-02T07:25:36.801Z,55.50
2018-08-02T07:28:07.195Z,56.20
2018-08-02T07:30:37.017Z,56.40
2018-08-02T07:33:06.731Z,57.00
2018-08-02T07:35:38.203Z,56.60
2018-08-02T07:38:08.679Z,57.20
2018-08-02T07:43:10.699Z,57.10
2018-08-02T07:45:41.180Z,57.20
2018-08-02T07:48:11.785Z,57.40
2018-08-02T07:50:41.939Z,58.30
2018-08-02T07:55:43.051Z,56.70
2018-08-02T07:58:13.920Z,56.20
2018-08-02T08:00:44.550Z,57.70
2018-08-02T08:03:15.061Z,58.20
2018-08-02T08:05:45.190Z,58.20
2018-08-02T08:08:15.999Z,58.30
2018-08-02T08:10:47.383Z,56.70
2018-08-02T08:13:18.956Z,56.40
2018-08-02T08:15:49.467Z,56.00
2018-08-02T08:18:20.114Z,55.80
2018-08-02T08:23:20.344Z,55.90
2018-08-02T08:25:52.739Z,55.30
2018-08-02T08:30:55.604Z,56.10
2018-08-02T08:33:26.854Z,55.80
2018-08-02T08:35:57.338Z,55.40
2018-08-02T08:38:29.623Z,55.80
2018-08-02T08:40:59.797Z,55.20
2018-08-02T08:46:08.014Z,54.80
2018-08-02T08:48:38.302Z,54.80
2018-08-02T08:51:16.148Z,54.60
2018-08-02T08:56:24.170Z,55.70
2018-08-02T08:59:05.248Z,55.90
2018-08-02T09:04:05.435Z,53.90
2018-08-02T09:06:44.949Z,54.10
2018-08-02T09:10:41.809Z,52.60
2018-08-02T09:13:11.694Z,52.70
2018-08-02T09:15:44.833Z,52.70
2018-08-02T09:18:14.865Z,51.90
2018-08-02T09:20:48.817Z,51.60
2018-08-02T09:23:21.409Z,53.50
2018-08-02T09:25:52.984Z,53.20
2018-08-02T09:28:26.354Z,51.50
2018-08-02T09:30:57.638Z,51.50
2018-08-02T09:33:28.106Z,50.90
2018-08-02T09:41:02.429Z,50.60
2018-08-02T09:43:34.176Z,51.40
2018-08-02T09:46:09.454Z,51.90
2018-08-02T09:48:44.413Z,51.20
2018-08-02T09:51:14.329Z,51.30
2018-08-02T09:53:44.750Z,49.80
2018-08-02T09:56:16.155Z,49.60
2018-08-02T09:58:46.974Z,49.80
2018-08-02T10:01:21.829Z,48.20
2018-08-02T10:03:53.149Z,49.20
2018-08-02T10:06:24.977Z,48.90
2018-08-02T10:08:55.251Z,49.50
2018-08-02T10:11:26.208Z,49.50
2018-08-02T10:13:56.508Z,47.80
2018-08-02T10:16:27.290Z,48.40
2018-08-02T10:18:57.850Z,46.90
2018-08-02T10:21:28.254Z,46.80
2018-08-02T10:23:58.707Z,47.00
2018-08-02T10:26:28.615Z,46.90
2018-08-02T10:28:59.410Z,46.70
2018-08-02T10:33:59.630Z,46.60
2018-08-02T10:36:31.261Z,46.80
2018-08-02T10:39:03.653Z,45.60
2018-08-02T10:41:35.204Z,45.90
2018-08-02T10:44:06.493Z,45.40
2018-08-02T10:51:39.134Z,45.50
2018-08-02T10:54:10.635Z,44.30
2018-08-02T10:56:42.741Z,44.90
2018-08-02T10:59:12.526Z,45.60
2018-08-02T11:01:43.059Z,45.20
2018-08-02T11:04:15.483Z,45.00
2018-08-02T11:06:45.433Z,45.20
2018-08-02T11:09:15.611Z,45.30
2018-08-02T11:11:49.116Z,44.80
2018-08-02T11:14:20.654Z,45.20
2018-08-02T11:16:51.580Z,44.70
2018-08-02T11:19:23.364Z,44.50
2018-08-02T11:21:54.288Z,44.80
2018-08-02T11:24:25.729Z,44.40
2018-08-02T11:26:55.677Z,44.30
2018-08-02T11:29:26.077Z,44.60
2018-08-02T11:32:00.227Z,45.60
2018-08-02T11:34:31.572Z,45.80
2018-08-02T11:37:02.189Z,45.40
2018-08-02T11:39:32.632Z,44.80
2018-08-02T11:42:04.761Z,44.90
2018-08-02T11:44:35.214Z,44.20
2018-08-02T11:47:05.768Z,44.40
2018-08-02T11:49:37.183Z,44.30
2018-08-02T11:52:07.692Z,44.30
2018-08-02T11:54:38.215Z,43.90
2018-08-02T11:57:10.383Z,44.30
2018-08-02T11:59:40.443Z,43.90
2018-08-02T12:02:12.631Z,43.60
2018-08-02T12:04:43.201Z,42.90
2018-08-02T12:07:15.824Z,42.00
2018-08-02T12:09:47.458Z,42.40
2018-08-02T12:12:18.088Z,42.00
2018-08-02T12:14:51.504Z,42.00
2018-08-02T12:17:22.206Z,41.40
2018-08-02T12:19:59.586Z,41.50
2018-08-02T12:22:29.538Z,41.40
2018-08-02T12:25:00.211Z,42.20
2018-08-02T12:27:30.604Z,41.70
2018-08-02T12:30:00.636Z,41.20
2018-08-02T12:32:30.979Z,41.10
2018-08-02T12:35:01.069Z,41.40
2018-08-02T12:37:32.038Z,41.40
2018-08-02T12:40:02.894Z,41.20
2018-08-02T12:42:32.821Z,41.00
2018-08-02T12:45:04.064Z,41.70
2018-08-02T12:47:35.338Z,40.80
2018-08-02T12:50:08.672Z,40.90
2018-08-02T12:52:39.696Z,40.10
2018-08-02T12:55:10.815Z,40.20
2018-08-02T12:57:50.547Z,39.60
2018-08-02T13:00:21.494Z,39.80
2018-08-02T13:02:53.385Z,40.00
2018-08-02T13:05:24.823Z,39.40
2018-08-02T13:07:55.570Z,39.20
2018-08-02T13:10:27.178Z,39.20
2018-08-02T13:12:57.049Z,39.20
2018-08-02T13:15:29.192Z,39.40
2018-08-02T13:18:01.750Z,38.70
2018-08-02T13:20:32.407Z,38.40
2018-08-02T13:23:02.623Z,38.30
2018-08-02T13:25:32.799Z,38.00
2018-08-02T13:28:06.371Z,37.50
2018-08-02T13:30:36.826Z,37.40
2018-08-02T13:35:51.657Z,36.80
2018-08-02T13:38:25.133Z,37.40
2018-08-02T13:40:59.076Z,37.60
2018-08-02T13:43:29.255Z,38.00
2018-08-02T13:46:06.101Z,37.90
2018-08-02T13:48:38.356Z,37.40
2018-08-02T13:51:09.079Z,37.80
2018-08-02T13:53:40.338Z,37.60
2018-08-02T13:56:14.604Z,37.50
2018-08-02T13:58:47.210Z,37.20
2018-08-02T14:01:22.274Z,36.40
2018-08-02T14:03:52.803Z,35.90
2018-08-02T14:06:28.876Z,36.20
2018-08-02T14:09:00.191Z,35.80
2018-08-02T14:11:33.102Z,34.80
2018-08-02T14:14:05.053Z,35.40
2018-08-02T14:16:35.315Z,35.30
2018-08-02T14:19:06.029Z,34.60
2018-08-02T14:21:38.109Z,35.00
2018-08-02T14:24:08.419Z,34.80
2018-08-02T14:26:39.126Z,35.80
2018-08-02T14:29:12.183Z,36.00
2018-08-02T14:31:44.022Z,36.40
2018-08-02T14:34:14.161Z,36.30
2018-08-02T14:36:44.129Z,36.10
2018-08-02T14:39:16.634Z,35.40
2018-08-02T14:41:49.803Z,35.10
2018-08-02T14:44:20.002Z,35.20
2018-08-02T14:46:51.825Z,35.20
2018-08-02T14:49:22.786Z,35.40
2018-08-02T14:51:55.218Z,34.60
2018-08-02T14:54:25.071Z,34.00
2018-08-02T14:56:55.816Z,33.50
2018-08-02T14:59:26.848Z,33.40
2018-08-02T15:01:58.160Z,33.90
2018-08-02T15:04:29.523Z,34.10
2018-08-02T15:07:00.308Z,33.80
2018-08-02T15:09:30.744Z,33.80
2018-08-02T15:12:01.506Z,33.20
2018-08-02T15:14:34.702Z,32.80
2018-08-02T15:17:06.302Z,33.60
2018-08-02T15:19:36.244Z,34.20
2018-08-02T15:22:06.770Z,34.20
2018-08-02T15:24:36.853Z,33.70
2018-08-02T15:27:07.198Z,33.20
2018-08-02T15:29:40.495Z,33.70
2018-08-02T15:32:12.772Z,33.90
2018-08-02T15:34:42.924Z,34.00
2018-08-02T15:37:14.052Z,34.20
2018-08-02T15:39:46.762Z,34.40
2018-08-02T15:42:17.552Z,34.30
2018-08-02T15:44:47.884Z,33.90
2018-08-02T15:47:24.363Z,34.00
2018-08-02T15:49:54.703Z,33.90
2018-08-02T15:52:25.688Z,34.00
2018-08-02T15:55:00.223Z,33.80
2018-08-02T15:57:31.283Z,34.10
2018-08-02T16:00:01.478Z,33.90
2018-08-02T16:02:34.105Z,34.40
2018-08-02T16:05:05.193Z,34.40
2018-08-02T16:07:35.463Z,34.00
2018-08-02T16:10:08.191Z,34.30
2018-08-02T16:12:38.480Z,34.60
2018-08-02T16:15:10.857Z,34.80
2018-08-02T16:17:45.058Z,34.60
2018-08-02T16:20:16.543Z,34.30
2018-08-02T16:22:47.049Z,34.40
2018-08-02T16:25:16.817Z,34.40
2018-08-02T16:27:46.767Z,33.90
2018-08-02T16:30:16.583Z,33.60
2018-08-02T16:32:46.975Z,34.20
2018-08-02T16:35:17.179Z,34.10
2018-08-02T16:37:48.757Z,33.60
2018-08-02T16:40:20.086Z,34.00
2018-08-02T16:48:22.746Z,34.00
2018-08-02T16:50:53.180Z,34.40
2018-08-02T16:53:24.186Z,34.80
2018-08-02T16:55:53.923Z,34.90
2018-08-02T16:58:23.859Z,35.20
2018-08-02T17:00:55.119Z,35.00
2018-08-02T17:03:26.308Z,35.00
2018-08-02T17:05:57.990Z,35.30
2018-08-02T17:08:28.139Z,35.40
2018-08-02T17:10:58.845Z,35.20
2018-08-02T17:13:28.638Z,34.80
2018-08-02T17:15:58.379Z,34.30
2018-08-02T17:18:29.615Z,34.90
2018-08-02T17:21:00.642Z,34.80
2018-08-02T17:23:34.290Z,34.70
2018-08-02T17:26:05.400Z,34.80
2018-08-02T17:28:35.593Z,35.10
2018-08-02T17:31:06.216Z,35.30
2018-08-02T17:33:36.707Z,35.80
2018-08-02T17:36:09.252Z,35.70
2018-08-02T17:38:39.199Z,35.70
2018-08-02T17:41:09.307Z,35.60
2018-08-02T17:43:39.815Z,35.40
2018-08-02T17:46:09.762Z,35.40
2018-08-02T17:48:42.459Z,35.50
2018-08-02T17:51:13.591Z,35.90
2018-08-02T17:53:43.860Z,35.90
2018-08-02T17:56:14.099Z,36.20
2018-08-02T17:58:43.841Z,36.30
2018-08-02T18:01:17.331Z,37.00
2018-08-02T18:03:47.767Z,36.80
2018-08-02T18:06:18.103Z,37.00
2018-08-02T18:08:48.468Z,37.20
2018-08-02T18:11:19.483Z,37.40
2018-08-02T18:13:50.320Z,37.40
2018-08-02T18:16:28.426Z,37.70
2018-08-02T18:18:58.760Z,37.80
2018-08-02T18:21:28.616Z,38.00
2018-08-02T18:23:58.620Z,38.20
2018-08-02T18:26:32.788Z,38.20
2018-08-02T18:29:03.427Z,38.30
2018-08-02T18:31:34.083Z,38.30
2018-08-02T18:34:06.398Z,38.40
2018-08-02T18:36:40.453Z,38.50
2018-08-02T18:39:11.182Z,38.60
2018-08-02T18:41:40.920Z,37.80
2018-08-02T18:44:10.815Z,38.50
2018-08-02T18:46:40.612Z,38.70
2018-08-02T18:49:10.291Z,38.90
2018-08-02T18:51:40.995Z,39.20
2018-08-02T18:54:11.196Z,39.60
2018-08-02T18:56:41.767Z,39.40
2018-08-02T18:59:11.768Z,39.40
2018-08-02T19:01:46.547Z,39.40
2018-08-02T19:04:18.209Z,39.50
2018-08-02T19:06:48.892Z,39.30
2018-08-02T19:09:20.350Z,39.30
2018-08-02T19:11:51.491Z,39.30
2018-08-02T19:14:23.323Z,39.40
2018-08-02T19:16:53.853Z,39.50
2018-08-02T19:19:25.281Z,39.80
2018-08-02T19:21:55.316Z,40.10
2018-08-02T19:24:25.270Z,40.40
2018-08-02T19:26:58.647Z,40.80
2018-08-02T19:29:28.980Z,41.10
2018-08-02T19:31:59.366Z,41.30
2018-08-02T19:34:31.217Z,41.30
2018-08-02T19:37:02.817Z,41.60
2018-08-02T19:39:33.263Z,41.90
2018-08-02T19:42:04.087Z,42.00
2018-08-02T19:44:35.806Z,42.10
2018-08-02T19:47:08.742Z,42.40
2018-08-02T19:52:19.297Z,42.80
2018-08-02T19:54:49.982Z,43.80
2018-08-02T19:57:22.011Z,43.20
2018-08-02T19:59:56.483Z,43.30
2018-08-02T20:02:27.799Z,43.50
2018-08-02T20:04:58.783Z,43.70
2018-08-02T20:07:28.776Z,44.40
2018-08-02T20:09:59.111Z,44.50
2018-08-02T20:12:29.112Z,45.50
2018-08-02T20:14:59.866Z,44.70
2018-08-02T20:17:30.000Z,44.90
2018-08-02T20:20:02.546Z,45.00
2018-08-02T20:22:35.098Z,45.40
2018-08-02T20:25:08.322Z,45.40
2018-08-02T20:27:58.878Z,45.60
2018-08-02T20:30:31.091Z,46.10
2018-08-02T20:33:05.399Z,46.30
2018-08-02T20:35:36.918Z,46.60
2018-08-02T20:38:09.614Z,46.50
2018-08-02T20:40:40.199Z,46.60
2018-08-02T20:43:10.809Z,46.70
2018-08-02T20:45:43.687Z,46.80
2018-08-02T20:48:14.847Z,47.00
2018-08-02T20:50:47.496Z,47.30
2018-08-02T20:53:19.459Z,47.50
2018-08-02T20:55:50.602Z,47.80
2018-08-02T20:58:25.189Z,48.00
2018-08-02T21:00:57.294Z,48.30
2018-08-02T21:03:27.191Z,48.20
2018-08-02T21:05:57.662Z,48.50
2018-08-02T21:08:30.787Z,48.40
2018-08-02T21:11:00.487Z,48.60
2018-08-02T21:13:31.612Z,48.60
2018-08-02T21:16:05.198Z,48.60
2018-08-02T21:18:35.606Z,48.40
2018-08-02T21:21:09.049Z,48.60
2018-08-02T21:23:40.496Z,48.80
2018-08-02T21:26:12.211Z,48.00
2018-08-02T21:28:42.804Z,49.00
2018-08-02T21:31:15.784Z,49.00
2018-08-02T21:33:48.193Z,48.90
2018-08-02T21:36:18.898Z,49.00
2018-08-02T21:38:50.326Z,49.10
2018-08-02T21:41:20.748Z,49.40
2018-08-02T21:43:51.197Z,49.30
2018-08-02T21:46:26.799Z,49.20
2018-08-02T21:48:56.770Z,50.60
2018-08-02T21:51:30.063Z,49.90
2018-08-02T21:54:00.599Z,50.10
2018-08-02T21:56:30.642Z,50.10
2018-08-02T21:59:05.199Z,50.00
2018-08-02T22:01:35.771Z,49.90
2018-08-02T22:04:11.272Z,50.60
2018-08-02T22:06:40.990Z,50.20
2018-08-02T22:09:11.314Z,50.20
2018-08-02T22:13:52.304Z,49.90
2018-08-02T22:16:27.179Z,50.10
2018-08-02T22:18:59.364Z,51.20
2018-08-02T22:21:29.756Z,51.20
2018-08-02T22:23:59.775Z,51.50
2018-08-02T22:26:29.383Z,51.70
2018-08-02T22:29:01.190Z,52.00
2018-08-02T22:31:32.987Z,51.90
2018-08-02T22:34:03.044Z,51.90
2018-08-02T22:36:33.511Z,51.50
2018-08-02T22:39:09.124Z,51.40
2018-08-02T22:41:39.917Z,51.20
2018-08-02T22:44:09.712Z,51.30
2018-08-02T22:46:40.100Z,51.40
2018-08-02T22:49:10.091Z,51.40
2018-08-02T22:51:40.182Z,51.30
2018-08-02T22:54:09.859Z,51.90
2018-08-02T22:56:40.121Z,52.20
2018-08-02T22:59:09.921Z,52.40
2018-08-02T23:01:39.771Z,52.30
2018-08-02T23:04:09.723Z,52.30
2018-08-02T23:06:39.340Z,52.10
2018-08-02T23:09:12.255Z,52.10
2018-08-02T23:11:42.326Z,52.20
2018-08-02T23:14:12.848Z,52.30
2018-08-02T23:16:43.763Z,52.20
2018-08-02T23:19:13.870Z,52.70
2018-08-02T23:21:44.145Z,52.50
2018-08-02T23:24:13.754Z,52.80
2018-08-02T23:26:43.715Z,52.80
2018-08-02T23:29:13.582Z,53.20
2018-08-02T23:31:43.373Z,53.60
2018-08-02T23:34:14.389Z,54.20
2018-08-02T23:36:48.579Z,53.70
2018-08-02T23:39:18.310Z,53.70
2018-08-02T23:41:49.798Z,53.60
2018-08-02T23:44:20.379Z,53.60
2018-08-02T23:46:51.465Z,53.50
2018-08-02T23:49:21.250Z,53.50
2018-08-02T23:51:50.875Z,53.30
2018-08-02T23:54:21.179Z,52.30
2018-08-02T23:56:51.130Z,53.40
2018-08-02T23:59:20.768Z,53.60
